Time;durP1;ratioP1;P1;durP2;ratioP2;P2;SDS_P1;SDS_P2;PMS_P1;PMS_P2;Temp;Humidity;BMP_temperature;BMP_pressure;BME280_temperature;BME280_humidity;BME280_pressure;Samples;Min_cycle;Max_cycle;Signal;HPM_P1;HPM_P2
2019/12/12 00:00:31;;;;;;;4.95;4.4;;;;;;;2.87;86.16504;94274.84;;;;
2019/12/12 00:01:40;;;;;;;4.95;4.4;;;;;;;2.87;86.16504;94274.84;;;;
2019/12/12 00:02:41;;;;;;;4.95;4.4;;;;;;;2.87;86.16504;94274.84;;;;
2019/12/12 00:03:43;;;;;;;4.95;4.4;;;;;;;2.87;86.16504;94274.84;;;;
2019/12/12 00:04:44;;;;;;;4.95;4.4;;;;;;;2.87;86.16504;94274.84;;;;
2019/12/12 00:05:45;;;;;;;5.550001;4.55;;;;;;;2.88;86.44238;94276.36;;;;
2019/12/12 00:06:46;;;;;;;5.550001;4.55;;;;;;;2.88;86.44238;94276.36;;;;
2019/12/12 00:07:47;;;;;;;5.550001;4.55;;;;;;;2.88;86.44238;94276.36;;;;
2019/12/12 00:08:48;;;;;;;5.550001;4.55;;;;;;;2.88;86.44238;94276.36;;;;
2019/12/12 00:09:50;;;;;;;5.550001;4.55;;;;;;;2.88;86.44238;94276.36;;;;
2019/12/12 00:10:51;;;;;;;5.550001;4.55;;;;;;;2.88;86.44238;94276.36;;;;
2019/12/12 00:11:52;;;;;;;5.550001;4.55;;;;;;;2.88;86.44238;94276.36;;;;
2019/12/12 00:12:53;;;;;;;5.550001;4.55;;;;;;;2.88;86.44238;94276.36;;;;
2019/12/12 00:13:54;;;;;;;5.550001;4.55;;;;;;;2.88;86.44238;94276.36;;;;
2019/12/12 00:14:55;;;;;;;5.550001;4.55;;;;;;;2.88;86.44238;94276.36;;;;
2019/12/12 00:15:56;;;;;;;4.6;4.2;;;;;;;2.84;86.89355;94275.27;;;;
2019/12/12 00:16:57;;;;;;;4.6;4.2;;;;;;;2.84;86.89355;94275.27;;;;
2019/12/12 00:17:58;;;;;;;4.6;4.2;;;;;;;2.84;86.89355;94275.27;;;;
2019/12/12 00:19:00;;;;;;;4.6;4.2;;;;;;;2.84;86.89355;94275.27;;;;
2019/12/12 00:20:01;;;;;;;4.6;4.2;;;;;;;2.84;86.89355;94275.27;;;;
2019/12/12 00:21:02;;;;;;;4.6;4.2;;;;;;;2.84;86.89355;94275.27;;;;
2019/12/12 00:22:03;;;;;;;4.6;4.2;;;;;;;2.84;86.89355;94275.27;;;;
2019/12/12 00:23:04;;;;;;;4.6;4.2;;;;;;;2.84;86.89355;94275.27;;;;
2019/12/12 00:24:06;;;;;;;4.6;4.2;;;;;;;2.84;86.89355;94275.27;;;;
2019/12/12 00:25:07;;;;;;;4.6;4.2;;;;;;;2.84;86.89355;94275.27;;;;
2019/12/12 00:26:08;;;;;;;4.6;4.2;;;;;;;2.84;86.89355;94275.27;;;;
2019/12/12 00:27:09;;;;;;;4.7;4.2;;;;;;;2.85;87.55469;94266.64;;;;
2019/12/12 00:28:10;;;;;;;4.7;4.2;;;;;;;2.85;87.55469;94266.64;;;;
2019/12/12 00:29:11;;;;;;;4.7;4.2;;;;;;;2.85;87.55469;94266.64;;;;
2019/12/12 00:30:12;;;;;;;4.7;4.2;;;;;;;2.85;87.55469;94266.64;;;;
2019/12/12 00:31:13;;;;;;;4.7;4.2;;;;;;;2.85;87.55469;94266.64;;;;
2019/12/12 00:32:14;;;;;;;4.7;4.2;;;;;;;2.85;87.55469;94266.64;;;;
2019/12/12 00:33:15;;;;;;;4.7;4.2;;;;;;;2.85;87.55469;94266.64;;;;
2019/12/12 00:34:17;;;;;;;4.7;4.2;;;;;;;2.85;87.55469;94266.64;;;;
2019/12/12 00:35:19;;;;;;;4.7;4.2;;;;;;;2.85;87.55469;94266.64;;;;
2019/12/12 00:36:20;;;;;;;4.7;4.2;;;;;;;2.85;87.55469;94266.64;;;;
2019/12/12 00:37:21;;;;;;;5.05;3.9;;;;;;;2.75;87.41895;94258.72;;;;
2019/12/12 00:38:22;;;;;;;5.05;3.9;;;;;;;2.75;87.41895;94258.72;;;;
2019/12/12 00:39:23;;;;;;;5.05;3.9;;;;;;;2.75;87.41895;94258.72;;;;
2019/12/12 00:40:24;;;;;;;5.05;3.9;;;;;;;2.75;87.41895;94258.72;;;;
2019/12/12 00:41:26;;;;;;;5.05;3.9;;;;;;;2.75;87.41895;94258.72;;;;
2019/12/12 00:42:27;;;;;;;5.05;3.9;;;;;;;2.75;87.41895;94258.72;;;;
2019/12/12 00:43:28;;;;;;;5.05;3.9;;;;;;;2.75;87.41895;94258.72;;;;
2019/12/12 00:44:29;;;;;;;5.05;3.9;;;;;;;2.75;87.41895;94258.72;;;;
2019/12/12 00:45:30;;;;;;;5.05;3.9;;;;;;;2.75;87.41895;94258.72;;;;
2019/12/12 00:46:33;;;;;;;5.05;3.9;;;;;;;2.75;87.41895;94258.72;;;;
2019/12/12 00:47:41;;;;;;;4.6;4.1;;;;;;;2.74;87.8252;94247.33;;;;
2019/12/12 00:49:01;;;;;;;4.6;4.1;;;;;;;2.74;87.8252;94247.33;;;;
2019/12/12 00:50:13;;;;;;;4.6;4.1;;;;;;;2.74;87.8252;94247.33;;;;
2019/12/12 00:56:32;;;;;;;4.6;4.1;;;;;;;2.74;87.8252;94247.33;;;;
2019/12/12 00:57:36;;;;;;;4.6;4.1;;;;;;;2.74;87.8252;94247.33;;;;
2019/12/12 00:58:38;;;;;;;5.25;4.6;;;;;;;2.67;87.94727;94254.55;;;;
2019/12/12 00:59:39;;;;;;;5.25;4.6;;;;;;;2.67;87.94727;94254.55;;;;
2019/12/12 01:00:40;;;;;;;5.25;4.6;;;;;;;2.67;87.94727;94254.55;;;;
2019/12/12 01:01:43;;;;;;;5.25;4.6;;;;;;;2.67;87.94727;94254.55;;;;
2019/12/12 01:02:44;;;;;;;5.25;4.6;;;;;;;2.67;87.94727;94254.55;;;;
2019/12/12 01:03:45;;;;;;;5.25;4.6;;;;;;;2.67;87.94727;94254.55;;;;
2019/12/12 01:04:48;;;;;;;5.25;4.6;;;;;;;2.67;87.94727;94254.55;;;;
2019/12/12 01:05:49;;;;;;;5.25;4.6;;;;;;;2.67;87.94727;94254.55;;;;
2019/12/12 01:06:50;;;;;;;5.25;4.6;;;;;;;2.67;87.94727;94254.55;;;;
2019/12/12 01:07:52;;;;;;;5.25;4.6;;;;;;;2.67;87.94727;94254.55;;;;
2019/12/12 01:08:53;;;;;;;5.5;4.45;;;;;;;2.68;88.15918;94250.74;;;;
2019/12/12 01:09:55;;;;;;;5.5;4.45;;;;;;;2.68;88.15918;94250.74;;;;
2019/12/12 01:10:56;;;;;;;5.5;4.45;;;;;;;2.68;88.15918;94250.74;;;;
2019/12/12 01:11:58;;;;;;;5.5;4.45;;;;;;;2.68;88.15918;94250.74;;;;
2019/12/12 01:12:59;;;;;;;5.5;4.45;;;;;;;2.68;88.15918;94250.74;;;;
2019/12/12 01:14:00;;;;;;;5.5;4.45;;;;;;;2.68;88.15918;94250.74;;;;
2019/12/12 01:15:01;;;;;;;5.5;4.45;;;;;;;2.68;88.15918;94250.74;;;;
2019/12/12 01:16:03;;;;;;;5.5;4.45;;;;;;;2.68;88.15918;94250.74;;;;
2019/12/12 01:17:04;;;;;;;5.5;4.45;;;;;;;2.68;88.15918;94250.74;;;;
2019/12/12 01:18:05;;;;;;;5.5;4.45;;;;;;;2.68;88.15918;94250.74;;;;
2019/12/12 01:19:06;;;;;;;5.5;4.45;;;;;;;2.68;88.15918;94250.74;;;;
2019/12/12 01:20:07;;;;;;;5.7;4.6;;;;;;;2.66;88.0918;94241.35;;;;
2019/12/12 01:21:08;;;;;;;5.7;4.6;;;;;;;2.66;88.0918;94241.35;;;;
2019/12/12 01:22:09;;;;;;;5.7;4.6;;;;;;;2.66;88.0918;94241.35;;;;
2019/12/12 01:23:10;;;;;;;5.7;4.6;;;;;;;2.66;88.0918;94241.35;;;;
2019/12/12 01:24:11;;;;;;;5.7;4.6;;;;;;;2.66;88.0918;94241.35;;;;
2019/12/12 01:25:12;;;;;;;5.7;4.6;;;;;;;2.66;88.0918;94241.35;;;;
2019/12/12 01:26:13;;;;;;;5.7;4.6;;;;;;;2.66;88.0918;94241.35;;;;
2019/12/12 01:27:15;;;;;;;5.7;4.6;;;;;;;2.66;88.0918;94241.35;;;;
2019/12/12 01:28:16;;;;;;;5.7;4.6;;;;;;;2.66;88.0918;94241.35;;;;
2019/12/12 01:29:17;;;;;;;5.7;4.6;;;;;;;2.66;88.0918;94241.35;;;;
2019/12/12 01:30:18;;;;;;;5.95;4.55;;;;;;;2.68;88.34668;94249;;;;
2019/12/12 01:31:24;;;;;;;5.95;4.55;;;;;;;2.68;88.34668;94249;;;;
2019/12/12 01:32:29;;;;;;;5.95;4.55;;;;;;;2.68;88.34668;94249;;;;
2019/12/12 01:33:30;;;;;;;5.95;4.55;;;;;;;2.68;88.34668;94249;;;;
2019/12/12 01:34:31;;;;;;;5.95;4.55;;;;;;;2.68;88.34668;94249;;;;
2019/12/12 01:35:32;;;;;;;5.95;4.55;;;;;;;2.68;88.34668;94249;;;;
2019/12/12 01:36:33;;;;;;;5.95;4.55;;;;;;;2.68;88.34668;94249;;;;
2019/12/12 01:37:34;;;;;;;5.95;4.55;;;;;;;2.68;88.34668;94249;;;;
2019/12/12 01:38:36;;;;;;;5.95;4.55;;;;;;;2.68;88.34668;94249;;;;
2019/12/12 01:39:37;;;;;;;5.95;4.55;;;;;;;2.68;88.34668;94249;;;;
2019/12/12 01:40:38;;;;;;;5.25;4.450001;;;;;;;2.66;88.5;94235.61;;;;
2019/12/12 01:41:39;;;;;;;5.25;4.450001;;;;;;;2.66;88.5;94235.61;;;;
2019/12/12 01:42:40;;;;;;;5.25;4.450001;;;;;;;2.66;88.5;94235.61;;;;
2019/12/12 01:43:41;;;;;;;5.25;4.450001;;;;;;;2.66;88.5;94235.61;;;;
2019/12/12 01:44:42;;;;;;;5.25;4.450001;;;;;;;2.66;88.5;94235.61;;;;
2019/12/12 01:45:43;;;;;;;5.25;4.450001;;;;;;;2.66;88.5;94235.61;;;;
2019/12/12 01:46:44;;;;;;;5.25;4.450001;;;;;;;2.66;88.5;94235.61;;;;
2019/12/12 01:47:45;;;;;;;5.25;4.450001;;;;;;;2.66;88.5;94235.61;;;;
2019/12/12 01:48:47;;;;;;;5.25;4.450001;;;;;;;2.66;88.5;94235.61;;;;
2019/12/12 01:49:48;;;;;;;5.25;4.450001;;;;;;;2.66;88.5;94235.61;;;;
2019/12/12 01:50:49;;;;;;;5.25;4.450001;;;;;;;2.66;88.5;94235.61;;;;
2019/12/12 01:51:50;;;;;;;5.65;4.450001;;;;;;;2.68;88.62988;94225.43;;;;
2019/12/12 01:52:51;;;;;;;5.65;4.450001;;;;;;;2.68;88.62988;94225.43;;;;
2019/12/12 01:53:52;;;;;;;5.65;4.450001;;;;;;;2.68;88.62988;94225.43;;;;
2019/12/12 01:54:53;;;;;;;5.65;4.450001;;;;;;;2.68;88.62988;94225.43;;;;
2019/12/12 01:55:54;;;;;;;5.65;4.450001;;;;;;;2.68;88.62988;94225.43;;;;
2019/12/12 01:56:55;;;;;;;5.65;4.450001;;;;;;;2.68;88.62988;94225.43;;;;
2019/12/12 01:57:56;;;;;;;5.65;4.450001;;;;;;;2.68;88.62988;94225.43;;;;
2019/12/12 01:58:57;;;;;;;5.65;4.450001;;;;;;;2.68;88.62988;94225.43;;;;
2019/12/12 01:59:59;;;;;;;5.65;4.450001;;;;;;;2.68;88.62988;94225.43;;;;
2019/12/12 02:01:00;;;;;;;5.65;4.450001;;;;;;;2.68;88.62988;94225.43;;;;
2019/12/12 02:02:01;;;;;;;7.000001;5.25;;;;;;;2.62;88.51367;94216.97;;;;
2019/12/12 02:03:02;;;;;;;7.000001;5.25;;;;;;;2.62;88.51367;94216.97;;;;
2019/12/12 02:04:03;;;;;;;7.000001;5.25;;;;;;;2.62;88.51367;94216.97;;;;
2019/12/12 02:05:05;;;;;;;7.000001;5.25;;;;;;;2.62;88.51367;94216.97;;;;
2019/12/12 02:06:06;;;;;;;7.000001;5.25;;;;;;;2.62;88.51367;94216.97;;;;
2019/12/12 02:07:07;;;;;;;7.000001;5.25;;;;;;;2.62;88.51367;94216.97;;;;
2019/12/12 02:08:08;;;;;;;7.000001;5.25;;;;;;;2.62;88.51367;94216.97;;;;
2019/12/12 02:09:10;;;;;;;7.000001;5.25;;;;;;;2.62;88.51367;94216.97;;;;
2019/12/12 02:10:14;;;;;;;7.000001;5.25;;;;;;;2.62;88.51367;94216.97;;;;
2019/12/12 02:11:16;;;;;;;7.000001;5.25;;;;;;;2.62;88.51367;94216.97;;;;
2019/12/12 02:12:17;;;;;;;7.35;5.450001;;;;;;;2.63;89.05957;94213.26;;;;
2019/12/12 02:13:19;;;;;;;7.35;5.450001;;;;;;;2.63;89.05957;94213.26;;;;
2019/12/12 02:14:20;;;;;;;7.35;5.450001;;;;;;;2.63;89.05957;94213.26;;;;
2019/12/12 02:15:21;;;;;;;7.35;5.450001;;;;;;;2.63;89.05957;94213.26;;;;
2019/12/12 02:16:25;;;;;;;7.35;5.450001;;;;;;;2.63;89.05957;94213.26;;;;
2019/12/12 02:17:27;;;;;;;7.35;5.450001;;;;;;;2.63;89.05957;94213.26;;;;
2019/12/12 02:18:29;;;;;;;7.35;5.450001;;;;;;;2.63;89.05957;94213.26;;;;
2019/12/12 02:19:33;;;;;;;7.35;5.450001;;;;;;;2.63;89.05957;94213.26;;;;
2019/12/12 02:20:43;;;;;;;7.35;5.450001;;;;;;;2.63;89.05957;94213.26;;;;
2019/12/12 02:21:52;;;;;;;7.35;5.450001;;;;;;;2.63;89.05957;94213.26;;;;
2019/12/12 02:23:19;;;;;;;7.35;5.450001;;;;;;;2.63;89.05957;94213.26;;;;
2019/12/12 02:24:30;;;;;;;7.35;5.849999;;;;;;;2.57;88.90918;94206.24;;;;
2019/12/12 02:25:40;;;;;;;7.35;5.849999;;;;;;;2.57;88.90918;94206.24;;;;
2019/12/12 02:26:48;;;;;;;7.35;5.849999;;;;;;;2.57;88.90918;94206.24;;;;
2019/12/12 02:27:56;;;;;;;7.35;5.849999;;;;;;;2.57;88.90918;94206.24;;;;
2019/12/12 02:28:57;;;;;;;7.35;5.849999;;;;;;;2.57;88.90918;94206.24;;;;
2019/12/12 02:29:58;;;;;;;7.35;5.849999;;;;;;;2.57;88.90918;94206.24;;;;
2019/12/12 02:30:59;;;;;;;7.35;5.849999;;;;;;;2.57;88.90918;94206.24;;;;
2019/12/12 02:32:01;;;;;;;7.35;5.849999;;;;;;;2.57;88.90918;94206.24;;;;
2019/12/12 02:33:02;;;;;;;7.35;5.849999;;;;;;;2.57;88.90918;94206.24;;;;
2019/12/12 02:34:03;;;;;;;8.549999;6.050001;;;;;;;2.56;89.24414;94200.09;;;;
2019/12/12 02:35:05;;;;;;;8.549999;6.050001;;;;;;;2.56;89.24414;94200.09;;;;
2019/12/12 02:36:06;;;;;;;8.549999;6.050001;;;;;;;2.56;89.24414;94200.09;;;;
2019/12/12 02:37:07;;;;;;;8.549999;6.050001;;;;;;;2.56;89.24414;94200.09;;;;
2019/12/12 02:38:08;;;;;;;8.549999;6.050001;;;;;;;2.56;89.24414;94200.09;;;;
2019/12/12 02:39:09;;;;;;;8.549999;6.050001;;;;;;;2.56;89.24414;94200.09;;;;
2019/12/12 02:40:10;;;;;;;8.549999;6.050001;;;;;;;2.56;89.24414;94200.09;;;;
2019/12/12 02:41:12;;;;;;;8.549999;6.050001;;;;;;;2.56;89.24414;94200.09;;;;
2019/12/12 02:42:13;;;;;;;8.549999;6.050001;;;;;;;2.56;89.24414;94200.09;;;;
2019/12/12 02:43:14;;;;;;;8.549999;6.050001;;;;;;;2.56;89.24414;94200.09;;;;
2019/12/12 02:44:15;;;;;;;9.199999;6.500001;;;;;;;2.49;89.21777;94195.31;;;;
2019/12/12 02:45:16;;;;;;;9.199999;6.500001;;;;;;;2.49;89.21777;94195.31;;;;
2019/12/12 02:46:17;;;;;;;9.199999;6.500001;;;;;;;2.49;89.21777;94195.31;;;;
2019/12/12 02:47:18;;;;;;;9.199999;6.500001;;;;;;;2.49;89.21777;94195.31;;;;
2019/12/12 02:48:19;;;;;;;9.199999;6.500001;;;;;;;2.49;89.21777;94195.31;;;;
2019/12/12 02:49:21;;;;;;;9.199999;6.500001;;;;;;;2.49;89.21777;94195.31;;;;
2019/12/12 02:50:22;;;;;;;9.199999;6.500001;;;;;;;2.49;89.21777;94195.31;;;;
2019/12/12 02:51:23;;;;;;;9.199999;6.500001;;;;;;;2.49;89.21777;94195.31;;;;
2019/12/12 02:52:24;;;;;;;9.199999;6.500001;;;;;;;2.49;89.21777;94195.31;;;;
2019/12/12 02:53:25;;;;;;;9.199999;6.500001;;;;;;;2.49;89.21777;94195.31;;;;
2019/12/12 02:54:26;;;;;;;9.199999;6.500001;;;;;;;2.49;89.21777;94195.31;;;;
2019/12/12 02:55:28;;;;;;;8.45;6.200001;;;;;;;2.5;89.62793;94188.02;;;;
2019/12/12 02:56:29;;;;;;;8.45;6.200001;;;;;;;2.5;89.62793;94188.02;;;;
2019/12/12 02:57:30;;;;;;;8.45;6.200001;;;;;;;2.5;89.62793;94188.02;;;;
2019/12/12 02:58:31;;;;;;;8.45;6.200001;;;;;;;2.5;89.62793;94188.02;;;;
2019/12/12 02:59:32;;;;;;;8.45;6.200001;;;;;;;2.5;89.62793;94188.02;;;;
2019/12/12 03:00:33;;;;;;;8.45;6.200001;;;;;;;2.5;89.62793;94188.02;;;;
2019/12/12 03:01:34;;;;;;;8.45;6.200001;;;;;;;2.5;89.62793;94188.02;;;;
2019/12/12 03:02:35;;;;;;;8.45;6.200001;;;;;;;2.5;89.62793;94188.02;;;;
2019/12/12 03:03:37;;;;;;;8.45;6.200001;;;;;;;2.5;89.62793;94188.02;;;;
2019/12/12 03:04:38;;;;;;;8.45;6.200001;;;;;;;2.5;89.62793;94188.02;;;;
2019/12/12 03:05:39;;;;;;;9.349999;6.349999;;;;;;;2.41;89.81934;94185.31;;;;
2019/12/12 03:06:41;;;;;;;9.349999;6.349999;;;;;;;2.41;89.81934;94185.31;;;;
2019/12/12 03:07:42;;;;;;;9.349999;6.349999;;;;;;;2.41;89.81934;94185.31;;;;
2019/12/12 03:08:43;;;;;;;9.349999;6.349999;;;;;;;2.41;89.81934;94185.31;;;;
2019/12/12 03:09:44;;;;;;;9.349999;6.349999;;;;;;;2.41;89.81934;94185.31;;;;
2019/12/12 03:10:45;;;;;;;9.349999;6.349999;;;;;;;2.41;89.81934;94185.31;;;;
2019/12/12 03:11:46;;;;;;;9.349999;6.349999;;;;;;;2.41;89.81934;94185.31;;;;
2019/12/12 03:12:48;;;;;;;9.349999;6.349999;;;;;;;2.41;89.81934;94185.31;;;;
2019/12/12 03:13:49;;;;;;;9.349999;6.349999;;;;;;;2.41;89.81934;94185.31;;;;
2019/12/12 03:14:50;;;;;;;9.349999;6.349999;;;;;;;2.41;89.81934;94185.31;;;;
2019/12/12 03:15:51;;;;;;;9.349999;6.349999;;;;;;;2.41;89.81934;94185.31;;;;
2019/12/12 03:16:52;;;;;;;8.950001;6;;;;;;;2.35;90.09961;94186.18;;;;
2019/12/12 03:17:54;;;;;;;8.950001;6;;;;;;;2.35;90.09961;94186.18;;;;
2019/12/12 03:18:55;;;;;;;8.950001;6;;;;;;;2.35;90.09961;94186.18;;;;
2019/12/12 03:19:56;;;;;;;8.950001;6;;;;;;;2.35;90.09961;94186.18;;;;
2019/12/12 03:20:57;;;;;;;8.950001;6;;;;;;;2.35;90.09961;94186.18;;;;
2019/12/12 03:21:58;;;;;;;8.950001;6;;;;;;;2.35;90.09961;94186.18;;;;
2019/12/12 03:22:59;;;;;;;8.950001;6;;;;;;;2.35;90.09961;94186.18;;;;
2019/12/12 03:24:01;;;;;;;8.950001;6;;;;;;;2.35;90.09961;94186.18;;;;
2019/12/12 03:25:02;;;;;;;8.950001;6;;;;;;;2.35;90.09961;94186.18;;;;
2019/12/12 03:26:03;;;;;;;8.950001;6;;;;;;;2.35;90.09961;94186.18;;;;
2019/12/12 03:27:04;;;;;;;6.7;5;;;;;;;2.24;89.95898;94180.28;;;;
2019/12/12 03:28:05;;;;;;;6.7;5;;;;;;;2.24;89.95898;94180.28;;;;
2019/12/12 03:29:06;;;;;;;6.7;5;;;;;;;2.24;89.95898;94180.28;;;;
2019/12/12 03:30:08;;;;;;;6.7;5;;;;;;;2.24;89.95898;94180.28;;;;
2019/12/12 03:31:09;;;;;;;6.7;5;;;;;;;2.24;89.95898;94180.28;;;;
2019/12/12 03:32:10;;;;;;;6.7;5;;;;;;;2.24;89.95898;94180.28;;;;
2019/12/12 03:33:11;;;;;;;6.7;5;;;;;;;2.24;89.95898;94180.28;;;;
2019/12/12 03:34:12;;;;;;;6.7;5;;;;;;;2.24;89.95898;94180.28;;;;
2019/12/12 03:35:13;;;;;;;6.7;5;;;;;;;2.24;89.95898;94180.28;;;;
2019/12/12 03:36:14;;;;;;;6.7;5;;;;;;;2.24;89.95898;94180.28;;;;
2019/12/12 03:37:15;;;;;;;7.35;4.35;;;;;;;2.19;90.15625;94176.11;;;;
2019/12/12 03:38:16;;;;;;;7.35;4.35;;;;;;;2.19;90.15625;94176.11;;;;
2019/12/12 03:39:18;;;;;;;7.35;4.35;;;;;;;2.19;90.15625;94176.11;;;;
2019/12/12 03:40:19;;;;;;;7.35;4.35;;;;;;;2.19;90.15625;94176.11;;;;
2019/12/12 03:41:20;;;;;;;7.35;4.35;;;;;;;2.19;90.15625;94176.11;;;;
2019/12/12 03:42:21;;;;;;;7.35;4.35;;;;;;;2.19;90.15625;94176.11;;;;
2019/12/12 03:43:23;;;;;;;7.35;4.35;;;;;;;2.19;90.15625;94176.11;;;;
2019/12/12 03:44:24;;;;;;;7.35;4.35;;;;;;;2.19;90.15625;94176.11;;;;
2019/12/12 03:45:26;;;;;;;7.35;4.35;;;;;;;2.19;90.15625;94176.11;;;;
2019/12/12 03:46:27;;;;;;;7.35;4.35;;;;;;;2.19;90.15625;94176.11;;;;
2019/12/12 03:47:28;;;;;;;7.35;4.35;;;;;;;2.19;90.15625;94176.11;;;;
2019/12/12 03:48:29;;;;;;;7.05;4.05;;;;;;;2.07;90.14258;94174.61;;;;
2019/12/12 03:49:30;;;;;;;7.05;4.05;;;;;;;2.07;90.14258;94174.61;;;;
2019/12/12 03:50:32;;;;;;;7.05;4.05;;;;;;;2.07;90.14258;94174.61;;;;
2019/12/12 03:51:33;;;;;;;7.05;4.05;;;;;;;2.07;90.14258;94174.61;;;;
2019/12/12 03:52:34;;;;;;;7.05;4.05;;;;;;;2.07;90.14258;94174.61;;;;
2019/12/12 03:53:35;;;;;;;7.05;4.05;;;;;;;2.07;90.14258;94174.61;;;;
2019/12/12 03:54:36;;;;;;;7.05;4.05;;;;;;;2.07;90.14258;94174.61;;;;
2019/12/12 03:55:37;;;;;;;7.05;4.05;;;;;;;2.07;90.14258;94174.61;;;;
2019/12/12 03:56:38;;;;;;;7.05;4.05;;;;;;;2.07;90.14258;94174.61;;;;
2019/12/12 03:57:39;;;;;;;7.05;4.05;;;;;;;2.07;90.14258;94174.61;;;;
2019/12/12 03:58:40;;;;;;;4.65;3.25;;;;;;;2.05;90.45215;94168.71;;;;
2019/12/12 03:59:41;;;;;;;4.65;3.25;;;;;;;2.05;90.45215;94168.71;;;;
2019/12/12 04:00:43;;;;;;;4.65;3.25;;;;;;;2.05;90.45215;94168.71;;;;
2019/12/12 04:01:44;;;;;;;4.65;3.25;;;;;;;2.05;90.45215;94168.71;;;;
2019/12/12 04:02:45;;;;;;;4.65;3.25;;;;;;;2.05;90.45215;94168.71;;;;
2019/12/12 04:03:46;;;;;;;4.65;3.25;;;;;;;2.05;90.45215;94168.71;;;;
2019/12/12 04:04:47;;;;;;;4.65;3.25;;;;;;;2.05;90.45215;94168.71;;;;
2019/12/12 04:05:48;;;;;;;4.65;3.25;;;;;;;2.05;90.45215;94168.71;;;;
2019/12/12 04:07:54;;;;;;;4.65;3.25;;;;;;;2.05;90.45215;94168.71;;;;
2019/12/12 04:08:55;;;;;;;4.65;3.25;;;;;;;2.05;90.45215;94168.71;;;;
2019/12/12 04:15:05;;;;;;;4.6;3.199999;;;;;;;1.96;90.56934;94169.44;;;;
2019/12/12 04:16:06;;;;;;;4.6;3.199999;;;;;;;1.96;90.56934;94169.44;;;;
2019/12/12 04:17:07;;;;;;;4.6;3.199999;;;;;;;1.96;90.56934;94169.44;;;;
2019/12/12 04:18:10;;;;;;;4.6;3.199999;;;;;;;1.96;90.56934;94169.44;;;;
2019/12/12 04:19:11;;;;;;;4.6;3.199999;;;;;;;1.96;90.56934;94169.44;;;;
2019/12/12 04:20:12;;;;;;;5.099999;3.25;;;;;;;1.97;91.04102;94176.42;;;;
2019/12/12 04:21:13;;;;;;;5.099999;3.25;;;;;;;1.97;91.04102;94176.42;;;;
2019/12/12 04:22:14;;;;;;;5.099999;3.25;;;;;;;1.97;91.04102;94176.42;;;;
2019/12/12 04:23:15;;;;;;;5.099999;3.25;;;;;;;1.97;91.04102;94176.42;;;;
2019/12/12 04:24:16;;;;;;;5.099999;3.25;;;;;;;1.97;91.04102;94176.42;;;;
2019/12/12 04:25:17;;;;;;;5.099999;3.25;;;;;;;1.97;91.04102;94176.42;;;;
2019/12/12 04:26:18;;;;;;;5.099999;3.25;;;;;;;1.97;91.04102;94176.42;;;;
2019/12/12 04:27:20;;;;;;;5.099999;3.25;;;;;;;1.97;91.04102;94176.42;;;;
2019/12/12 04:28:21;;;;;;;5.099999;3.25;;;;;;;1.97;91.04102;94176.42;;;;
2019/12/12 04:29:22;;;;;;;5.099999;3.25;;;;;;;1.97;91.04102;94176.42;;;;
2019/12/12 04:30:23;;;;;;;6.65;3.15;;;;;;;1.9;90.94434;94185.86;;;;
2019/12/12 04:31:24;;;;;;;6.65;3.15;;;;;;;1.9;90.94434;94185.86;;;;
2019/12/12 04:32:25;;;;;;;6.65;3.15;;;;;;;1.9;90.94434;94185.86;;;;
2019/12/12 04:33:26;;;;;;;6.65;3.15;;;;;;;1.9;90.94434;94185.86;;;;
2019/12/12 04:34:27;;;;;;;6.65;3.15;;;;;;;1.9;90.94434;94185.86;;;;
2019/12/12 04:35:28;;;;;;;6.65;3.15;;;;;;;1.9;90.94434;94185.86;;;;
2019/12/12 04:36:30;;;;;;;6.65;3.15;;;;;;;1.9;90.94434;94185.86;;;;
2019/12/12 04:37:31;;;;;;;6.65;3.15;;;;;;;1.9;90.94434;94185.86;;;;
2019/12/12 04:38:32;;;;;;;6.65;3.15;;;;;;;1.9;90.94434;94185.86;;;;
2019/12/12 04:39:33;;;;;;;6.65;3.15;;;;;;;1.9;90.94434;94185.86;;;;
2019/12/12 04:40:34;;;;;;;6.65;3.15;;;;;;;1.9;90.94434;94185.86;;;;
2019/12/12 04:41:35;;;;;;;4.85;3.1;;;;;;;1.92;90.97949;94182.48;;;;
2019/12/12 04:42:36;;;;;;;4.85;3.1;;;;;;;1.92;90.97949;94182.48;;;;
2019/12/12 04:43:37;;;;;;;4.85;3.1;;;;;;;1.92;90.97949;94182.48;;;;
2019/12/12 04:44:38;;;;;;;4.85;3.1;;;;;;;1.92;90.97949;94182.48;;;;
2019/12/12 04:45:39;;;;;;;4.85;3.1;;;;;;;1.92;90.97949;94182.48;;;;
2019/12/12 04:46:40;;;;;;;4.85;3.1;;;;;;;1.92;90.97949;94182.48;;;;
2019/12/12 04:47:41;;;;;;;4.85;3.1;;;;;;;1.92;90.97949;94182.48;;;;
2019/12/12 04:48:43;;;;;;;4.85;3.1;;;;;;;1.92;90.97949;94182.48;;;;
2019/12/12 04:49:44;;;;;;;4.85;3.1;;;;;;;1.92;90.97949;94182.48;;;;
2019/12/12 04:50:45;;;;;;;4.85;3.1;;;;;;;1.92;90.97949;94182.48;;;;
2019/12/12 04:51:46;;;;;;;5.35;2.65;;;;;;;1.89;90.9502;94175.81;;;;
2019/12/12 04:52:47;;;;;;;5.35;2.65;;;;;;;1.89;90.9502;94175.81;;;;
2019/12/12 04:53:48;;;;;;;5.35;2.65;;;;;;;1.89;90.9502;94175.81;;;;
2019/12/12 04:54:49;;;;;;;5.35;2.65;;;;;;;1.89;90.9502;94175.81;;;;
2019/12/12 04:55:50;;;;;;;5.35;2.65;;;;;;;1.89;90.9502;94175.81;;;;
2019/12/12 04:56:51;;;;;;;5.35;2.65;;;;;;;1.89;90.9502;94175.81;;;;
2019/12/12 04:57:52;;;;;;;5.35;2.65;;;;;;;1.89;90.9502;94175.81;;;;
2019/12/12 04:58:54;;;;;;;5.35;2.65;;;;;;;1.89;90.9502;94175.81;;;;
2019/12/12 04:59:55;;;;;;;5.35;2.65;;;;;;;1.89;90.9502;94175.81;;;;
2019/12/12 05:00:56;;;;;;;5.35;2.65;;;;;;;1.89;90.9502;94175.81;;;;
2019/12/12 05:01:57;;;;;;;5.35;2.65;;;;;;;1.89;90.9502;94175.81;;;;
2019/12/12 05:02:58;;;;;;;5;2.55;;;;;;;1.93;91.24023;94187.27;;;;
2019/12/12 05:03:59;;;;;;;5;2.55;;;;;;;1.93;91.24023;94187.27;;;;
2019/12/12 05:05:00;;;;;;;5;2.55;;;;;;;1.93;91.24023;94187.27;;;;
2019/12/12 05:06:01;;;;;;;5;2.55;;;;;;;1.93;91.24023;94187.27;;;;
2019/12/12 05:07:03;;;;;;;5;2.55;;;;;;;1.93;91.24023;94187.27;;;;
2019/12/12 05:08:04;;;;;;;5;2.55;;;;;;;1.93;91.24023;94187.27;;;;
2019/12/12 05:09:05;;;;;;;5;2.55;;;;;;;1.93;91.24023;94187.27;;;;
2019/12/12 05:10:07;;;;;;;5;2.55;;;;;;;1.93;91.24023;94187.27;;;;
2019/12/12 05:11:08;;;;;;;5;2.55;;;;;;;1.93;91.24023;94187.27;;;;
2019/12/12 05:12:09;;;;;;;5;2.55;;;;;;;1.93;91.24023;94187.27;;;;
2019/12/12 05:13:10;;;;;;;4;2.35;;;;;;;1.9;91.16309;94192.52;;;;
2019/12/12 05:14:11;;;;;;;4;2.35;;;;;;;1.9;91.16309;94192.52;;;;
2019/12/12 05:15:12;;;;;;;4;2.35;;;;;;;1.9;91.16309;94192.52;;;;
2019/12/12 05:16:14;;;;;;;4;2.35;;;;;;;1.9;91.16309;94192.52;;;;
2019/12/12 05:17:15;;;;;;;4;2.35;;;;;;;1.9;91.16309;94192.52;;;;
2019/12/12 05:18:16;;;;;;;4;2.35;;;;;;;1.9;91.16309;94192.52;;;;
2019/12/12 05:19:17;;;;;;;4;2.35;;;;;;;1.9;91.16309;94192.52;;;;
2019/12/12 05:20:18;;;;;;;4;2.35;;;;;;;1.9;91.16309;94192.52;;;;
2019/12/12 05:21:20;;;;;;;4;2.35;;;;;;;1.9;91.16309;94192.52;;;;
2019/12/12 05:22:23;;;;;;;4;2.35;;;;;;;1.9;91.16309;94192.52;;;;
2019/12/12 05:23:28;;;;;;;4.199999;2.15;;;;;;;1.95;91.3291;94191.36;;;;
2019/12/12 05:25:14;;;;;;;4.199999;2.15;;;;;;;1.95;91.3291;94191.36;;;;
2019/12/12 05:26:16;;;;;;;4.199999;2.15;;;;;;;1.95;91.3291;94191.36;;;;
2019/12/12 05:27:18;;;;;;;4.199999;2.15;;;;;;;1.95;91.3291;94191.36;;;;
2019/12/12 05:28:19;;;;;;;4.199999;2.15;;;;;;;1.95;91.3291;94191.36;;;;
2019/12/12 05:29:20;;;;;;;4.199999;2.15;;;;;;;1.95;91.3291;94191.36;;;;
2019/12/12 05:30:21;;;;;;;4.199999;2.15;;;;;;;1.95;91.3291;94191.36;;;;
2019/12/12 05:31:22;;;;;;;4.199999;2.15;;;;;;;1.95;91.3291;94191.36;;;;
2019/12/12 05:32:23;;;;;;;4.199999;2.15;;;;;;;1.95;91.3291;94191.36;;;;
2019/12/12 05:33:24;;;;;;;4.199999;2.15;;;;;;;1.95;91.3291;94191.36;;;;
2019/12/12 05:34:25;;;;;;;5.400001;2.7;;;;;;;1.94;91.37988;94203.43;;;;
2019/12/12 05:35:26;;;;;;;5.400001;2.7;;;;;;;1.94;91.37988;94203.43;;;;
2019/12/12 05:36:28;;;;;;;5.400001;2.7;;;;;;;1.94;91.37988;94203.43;;;;
2019/12/12 05:37:29;;;;;;;5.400001;2.7;;;;;;;1.94;91.37988;94203.43;;;;
2019/12/12 05:38:30;;;;;;;5.400001;2.7;;;;;;;1.94;91.37988;94203.43;;;;
2019/12/12 05:39:31;;;;;;;5.400001;2.7;;;;;;;1.94;91.37988;94203.43;;;;
2019/12/12 05:40:32;;;;;;;5.400001;2.7;;;;;;;1.94;91.37988;94203.43;;;;
2019/12/12 05:41:33;;;;;;;5.400001;2.7;;;;;;;1.94;91.37988;94203.43;;;;
2019/12/12 05:42:34;;;;;;;5.400001;2.7;;;;;;;1.94;91.37988;94203.43;;;;
2019/12/12 05:43:35;;;;;;;5.400001;2.7;;;;;;;1.94;91.37988;94203.43;;;;
2019/12/12 05:44:36;;;;;;;4.85;2.55;;;;;;;1.98;91.44824;94198.5;;;;
2019/12/12 05:45:38;;;;;;;4.85;2.55;;;;;;;1.98;91.44824;94198.5;;;;
2019/12/12 05:46:39;;;;;;;4.85;2.55;;;;;;;1.98;91.44824;94198.5;;;;
2019/12/12 05:47:40;;;;;;;4.85;2.55;;;;;;;1.98;91.44824;94198.5;;;;
2019/12/12 05:48:41;;;;;;;4.85;2.55;;;;;;;1.98;91.44824;94198.5;;;;
2019/12/12 05:49:42;;;;;;;4.85;2.55;;;;;;;1.98;91.44824;94198.5;;;;
2019/12/12 05:50:43;;;;;;;4.85;2.55;;;;;;;1.98;91.44824;94198.5;;;;
2019/12/12 05:51:44;;;;;;;4.85;2.55;;;;;;;1.98;91.44824;94198.5;;;;
2019/12/12 05:52:45;;;;;;;4.85;2.55;;;;;;;1.98;91.44824;94198.5;;;;
2019/12/12 05:53:46;;;;;;;4.85;2.55;;;;;;;1.98;91.44824;94198.5;;;;
2019/12/12 05:54:47;;;;;;;4.85;2.55;;;;;;;1.98;91.44824;94198.5;;;;
2019/12/12 05:55:48;;;;;;;6.300001;2.8;;;;;;;1.91;91.51953;94193.21;;;;
2019/12/12 05:56:50;;;;;;;6.300001;2.8;;;;;;;1.91;91.51953;94193.21;;;;
2019/12/12 05:57:51;;;;;;;6.300001;2.8;;;;;;;1.91;91.51953;94193.21;;;;
2019/12/12 05:58:52;;;;;;;6.300001;2.8;;;;;;;1.91;91.51953;94193.21;;;;
2019/12/12 05:59:53;;;;;;;6.300001;2.8;;;;;;;1.91;91.51953;94193.21;;;;
2019/12/12 06:00:54;;;;;;;6.300001;2.8;;;;;;;1.91;91.51953;94193.21;;;;